Погода Кушатана 2 недели

Южно-Казахстанская область, Казахстан

24 июля-06 августа
  • 24июля
    Сегодня
    +27°
    +37°
    Практически безоблачно
    ВремяПогодаТемператураВлажностьДавлениеВетер, м/сВероятность осадков
    02:00Ясно и безоблачно+27°C30 %713 мм4.4 м/с2 %
    05:00Ясно и безоблачно+24°C37 %713 мм1.6 м/с2 %
    08:00Ясно и безоблачно+31°C24 %714 мм1.2 м/с2 %
    11:00Ясно и безоблачно+35°C17 %714 мм2.2 м/с2 %
    14:00Практически безоблачно+36°C15 %713 мм0.7 м/с2 %
    17:00Облачно с прояснениями+36°C14 %712 мм1.3 м/с2 %
    20:00Практически безоблачно+32°C19 %712 мм2.9 м/с2 %
    23:00Ясно и безоблачно+27°C29 %712 мм4.1 м/с2 %
  • 25июля
    Четверг
    +25°
    +39°
    Ясно и безоблачно
    ВремяПогодаТемператураВлажностьДавлениеВетер, м/сВероятность осадков
    02:00Ясно и безоблачно+29°C25 %711 мм5.6 м/с2 %
    05:00Ясно и безоблачно+28°C28 %711 мм5.0 м/с2 %
    08:00Ясно и безоблачно+34°C21 %712 мм3.4 м/с2 %
    11:00Ясно и безоблачно+37°C14 %713 мм3.4 м/с2 %
    14:00Ясно и безоблачно+39°C12 %712 мм2.1 м/с2 %
    17:00Практически безоблачно+38°C12 %712 мм3.4 м/с2 %
    20:00Ясно и безоблачно+32°C18 %712 мм2.2 м/с2 %
    23:00Практически безоблачно+28°C24 %711 мм3.4 м/с2 %
  • 26июля
    Пятница
    +24°
    +39°
    Практически безоблачно
    ВремяПогодаТемператураВлажностьДавлениеВетер, м/сВероятность осадков
    02:00Облачно с прояснениями+28°C23 %711 мм2.6 м/с2 %
    05:00Ясно и безоблачно+26°C23 %712 мм2.4 м/с2 %
    08:00Ясно и безоблачно+33°C16 %713 мм3.6 м/с2 %
    11:00Ясно и безоблачно+36°C14 %714 мм3.1 м/с2 %
    14:00Практически безоблачно+38°C13 %714 мм4.6 м/с2 %
    17:00Ясно и безоблачно+37°C16 %714 мм5.3 м/с2 %
    20:00Ясно и безоблачно+32°C24 %715 мм2.6 м/с2 %
    23:00Ясно и безоблачно+28°C28 %715 мм4.1 м/с2 %
  • 27июля
    Суббота
    +24°
    +38°
    Ясно и безоблачно
    ВремяПогодаТемператураВлажностьДавлениеВетер, м/сВероятность осадков
    02:00Ясно и безоблачно+26°C28 %715 мм4.7 м/с2 %
    05:00Ясно и безоблачно+25°C28 %716 мм5.8 м/с2 %
    08:00Ясно и безоблачно+31°C21 %717 мм3.1 м/с2 %
    11:00Ясно и безоблачно+35°C17 %717 мм1.1 м/с2 %
    14:00Ясно и безоблачно+37°C14 %717 мм1.8 м/с2 %
    17:00Ясно и безоблачно+37°C14 %716 мм1.6 м/с2 %
    20:00Ясно и безоблачно+32°C19 %717 мм6.1 м/с2 %
    23:00Ясно и безоблачно+29°C17 %716 мм7.2 м/с2 %
  • 28июля
    Воскресенье
    +24°
    +37°
    Ясно и безоблачно
    ВремяПогодаТемператураВлажностьДавлениеВетер, м/сВероятность осадков
    02:00Ясно и безоблачно+28°C19 %716 мм7.5 м/с2 %
    05:00Ясно и безоблачно+25°C21 %717 мм6.0 м/с2 %
    08:00Ясно и безоблачно+31°C17 %719 мм4.5 м/с2 %
    11:00Ясно и безоблачно+35°C13 %719 мм2.7 м/с2 %
    14:00Ясно и безоблачно+36°C13 %718 мм3.6 м/с2 %
    17:00Ясно и безоблачно+35°C13 %718 мм4.7 м/с2 %
    20:00Ясно и безоблачно+31°C16 %717 мм4.9 м/с2 %
    23:00Ясно и безоблачно+28°C18 %717 мм7.6 м/с2 %
Мы используем cookies
Соглашаюсь